Time;durP1;ratioP1;P1;durP2;ratioP2;P2;SDS_P1;SDS_P2;PMS_P1;PMS_P2;Temp;Humidity;BMP_temperature;BMP_pressure;BME280_temperature;BME280_humidity;BME280_pressure;Samples;Min_cycle;Max_cycle;Signal;HPM_P1;HPM_P2
2023/06/15 00:00:31;;;;;;;3.63;2.50;;;16.20;92.30;;;16.92;85.77;98153.38;5026761;28;20470;-83
2023/06/15 00:03:00;;;;;;;3.13;2.53;;;16.20;92.30;;;16.85;86.59;98157.94;5026117;28;20470;-83
2023/06/15 00:05:29;;;;;;;2.83;2.20;;;16.10;92.50;;;16.83;86.58;98153.91;5008396;28;20482;-84
2023/06/15 00:07:58;;;;;;;3.00;2.43;;;16.00;92.60;;;16.82;86.46;98162.88;5026478;28;20470;-84
2023/06/15 00:10:28;;;;;;;3.60;2.50;;;16.00;92.60;;;16.78;86.78;98156.41;5025534;28;20476;-84
2023/06/15 00:12:57;;;;;;;4.57;2.67;;;16.00;92.70;;;16.73;87.39;98161.56;5027081;28;20481;-84
2023/06/15 00:15:27;;;;;;;3.80;2.80;;;15.90;92.80;;;16.70;87.58;98160.16;5024693;28;20539;-84
2023/06/15 00:17:57;;;;;;;4.80;2.70;;;15.90;92.70;;;16.69;88.02;98169.13;5025921;28;21074;-84
2023/06/15 00:20:28;;;;;;;3.40;2.70;;;15.90;92.90;;;16.64;88.19;98166.34;5026920;28;20470;-84
2023/06/15 00:23:00;;;;;;;3.53;2.43;;;15.80;92.90;;;16.64;88.44;98166.34;5024254;28;21201;-84
2023/06/15 00:25:33;;;;;;;3.77;2.60;;;15.80;92.90;;;16.56;88.94;98162.16;5026969;28;21053;-84
2023/06/15 00:28:02;;;;;;;8.50;2.43;;;15.80;92.90;;;16.47;90.00;98168.75;5026761;28;20554;-84
2023/06/15 00:30:31;;;;;;;3.37;2.70;;;15.80;93.00;;;16.46;90.11;98174.25;5025442;28;20489;-84
2023/06/15 00:33:02;;;;;;;3.43;2.73;;;15.70;93.10;;;16.44;90.15;98171.84;5027021;28;20520;-84
2023/06/15 00:35:31;;;;;;;4.10;2.53;;;15.70;93.30;;;16.41;90.04;98180.22;5026136;28;20576;-84
2023/06/15 00:38:00;;;;;;;2.60;2.30;;;15.70;93.10;;;16.38;90.13;98177.97;5026150;28;21015;-84
2023/06/15 00:40:30;;;;;;;5.83;2.57;;;15.60;93.10;;;16.35;90.26;98173.16;5026578;28;20573;-83
2023/06/15 00:42:59;;;;;;;3.80;2.70;;;15.60;93.20;;;16.30;90.31;98182.75;5026675;28;20985;-85
2023/06/15 00:45:28;;;;;;;3.70;2.80;;;15.50;93.20;;;16.26;90.78;98177.13;5027903;28;20832;-84
2023/06/15 00:47:57;;;;;;;3.37;2.80;;;15.50;93.20;;;16.22;91.20;98186.50;5025350;28;20465;-83
2023/06/15 00:50:30;;;;;;;4.53;2.90;;;15.50;93.40;;;16.18;91.68;98189.78;5025691;28;20466;-83
2023/06/15 00:53:03;;;;;;;4.57;3.13;;;15.40;93.30;;;16.14;91.85;98186.78;5024591;28;20458;-84
2023/06/15 00:55:33;;;;;;;3.33;2.50;;;15.40;93.40;;;16.11;92.25;98189.84;5024071;28;20490;-84
2023/06/15 00:58:03;;;;;;;3.00;2.30;;;15.30;93.60;;;16.06;92.80;98182.63;5026565;28;20462;-84
2023/06/15 01:00:37;;;;;;;3.33;2.80;;;15.30;93.60;;;16.03;93.13;98190.97;5025668;28;20496;-84
2023/06/15 01:03:07;;;;;;;6.33;2.93;;;15.30;93.90;;;16.02;93.15;98186.72;5025013;28;20462;-84
2023/06/15 01:05:37;;;;;;;5.83;2.60;;;15.20;94.00;;;15.98;93.29;98195.25;5025832;28;20462;-83
2023/06/15 01:08:08;;;;;;;2.80;2.33;;;15.20;93.70;;;15.93;93.83;98195.13;5025830;28;20465;-83
2023/06/15 01:10:38;;;;;;;3.87;2.70;;;15.20;93.70;;;15.89;94.03;98188.66;5026996;28;23426;-83
2023/06/15 01:13:12;;;;;;;3.40;2.57;;;15.20;94.00;;;15.87;93.88;98185.41;5008263;28;21164;-83
2023/06/15 01:15:41;;;;;;;3.90;2.50;;;15.10;94.00;;;15.85;93.85;98184.84;5025933;28;20548;-83
2023/06/15 01:18:19;;;;;;;4.77;2.60;;;15.10;93.80;;;15.84;93.82;98188.50;5025435;28;20470;-83
2023/06/15 01:20:53;;;;;;;2.93;2.60;;;15.10;93.80;;;15.78;94.59;98184.91;5023426;28;20465;-83
2023/06/15 01:23:38;;;;;;;2.80;2.50;;;15.10;94.00;;;15.71;95.01;98181.53;5022721;28;20461;-83
2023/06/15 01:26:12;;;;;;;4.03;2.60;;;15.00;93.90;;;15.68;94.93;98184.59;5022728;28;20468;-83
2023/06/15 01:28:49;;;;;;;8.17;2.50;;;15.00;94.00;;;15.63;95.31;98178.34;5024658;28;20476;-84
2023/06/15 01:31:20;;;;;;;3.73;2.90;;;14.90;94.00;;;15.59;95.56;98176.13;5021791;28;20454;-83
2023/06/15 01:33:52;;;;;;;5.17;2.67;;;14.80;94.20;;;15.60;95.90;98180.41;5023025;28;20473;-83
2023/06/15 01:36:21;;;;;;;3.70;2.90;;;14.80;94.40;;;15.59;95.50;98172.69;5023322;28;20463;-84
2023/06/15 01:38:57;;;;;;;4.40;3.00;;;14.80;94.20;;;15.55;95.70;98174.13;5023429;28;20827;-84
2023/06/15 01:41:29;;;;;;;2.70;2.50;;;14.80;94.10;;;15.47;96.22;98177.84;5024756;28;20556;-83
2023/06/15 01:44:00;;;;;;;3.47;2.80;;;14.80;94.10;;;15.41;96.56;98181.31;5025649;28;20524;-84
2023/06/15 01:46:30;;;;;;;3.50;2.60;;;14.70;94.40;;;15.39;96.61;98174.66;5024229;28;20843;-84
2023/06/15 01:49:00;;;;;;;4.17;2.77;;;14.70;94.30;;;15.37;96.80;98174.88;5023332;28;20501;-84
2023/06/15 01:51:32;;;;;;;4.97;2.97;;;14.60;94.40;;;15.36;96.98;98175.88;5024874;28;20461;-85
2023/06/15 01:54:01;;;;;;;4.23;2.87;;;14.60;94.40;;;15.31;97.70;98170.44;5026803;28;20465;-84
2023/06/15 01:56:31;;;;;;;3.40;2.60;;;14.60;94.40;;;15.25;98.43;98175.75;5024713;28;20466;-83
2023/06/15 01:59:01;;;;;;;3.30;2.20;;;14.50;94.50;;;15.21;98.77;98175.38;5025833;28;20461;-83
2023/06/15 02:01:31;;;;;;;8.47;2.70;;;14.50;94.60;;;15.20;98.72;98176.41;5023208;28;21037;-83
2023/06/15 02:04:00;;;;;;;8.37;2.90;;;14.50;94.60;;;15.20;98.64;98181.69;5024450;28;21257;-83
2023/06/15 02:06:29;;;;;;;5.70;3.17;;;14.40;94.90;;;15.25;98.64;98175.75;5024595;28;20462;-84
2023/06/15 02:08:59;;;;;;;3.63;3.17;;;14.40;94.80;;;15.20;98.15;98178.25;5024074;28;20827;-84
2023/06/15 02:11:30;;;;;;;4.03;2.37;;;14.40;94.70;;;15.14;98.72;98182.50;5023407;28;20470;-84
2023/06/15 02:13:59;;;;;;;4.27;2.80;;;14.40;94.90;;;15.08;98.97;98175.47;5023820;28;20461;-83
2023/06/15 02:16:28;;;;;;;6.07;2.83;;;14.40;94.60;;;15.04;99.82;98182.19;5023758;28;20508;-84
2023/06/15 02:19:03;;;;;;;3.73;2.80;;;14.30;94.80;;;15.02;99.54;98181.59;5025310;28;20558;-83
2023/06/15 02:21:31;;;;;;;5.60;2.73;;;14.30;94.90;;;15.01;100.00;98179.97;5023538;28;20454;-83
2023/06/15 02:24:00;;;;;;;3.27;2.40;;;14.20;95.30;;;15.02;99.72;98182.41;5026354;28;20465;-84
2023/06/15 02:26:31;;;;;;;3.87;2.90;;;14.20;95.10;;;14.98;99.53;98185.66;5024410;28;20478;-84
2023/06/15 02:28:59;;;;;;;3.00;2.60;;;14.20;95.00;;;14.96;100.00;98177.97;5023953;28;20525;-84
2023/06/15 02:31:30;;;;;;;3.60;2.70;;;14.20;95.00;;;14.93;100.00;98177.56;5006121;28;20498;-83
2023/06/15 02:33:59;;;;;;;3.40;2.80;;;14.10;95.00;;;14.92;100.00;98181.25;5027493;28;20517;-83
2023/06/15 02:36:28;;;;;;;3.93;2.67;;;14.10;95.20;;;14.95;100.00;98180.81;5030170;28;20524;-84
2023/06/15 02:38:58;;;;;;;3.93;2.90;;;14.10;95.20;;;14.91;100.00;98182.25;5029622;28;20479;-84
2023/06/15 02:41:27;;;;;;;3.40;2.57;;;14.10;95.00;;;14.89;100.00;98181.66;5028587;28;20465;-83
2023/06/15 02:43:58;;;;;;;5.60;3.27;;;14.00;95.30;;;14.90;100.00;98188.53;5027913;28;20476;-83
2023/06/15 02:46:27;;;;;;;5.10;2.87;;;14.10;95.30;;;14.88;100.00;98185.31;5027200;28;20474;-84
2023/06/15 02:48:57;;;;;;;2.20;2.00;;;14.00;95.40;;;14.87;100.00;98179.22;5025810;28;20477;-79
2023/06/15 02:51:25;;;;;;;3.67;2.60;;;14.00;95.10;;;14.82;100.00;98180.91;5026375;28;20469;-83
2023/06/15 02:53:54;;;;;;;3.60;2.50;;;14.10;95.00;;;14.81;100.00;98181.91;5028577;28;20473;-82
2023/06/15 02:56:23;;;;;;;2.90;2.53;;;14.00;95.30;;;14.80;100.00;98178.47;5024555;28;20508;-83
2023/06/15 02:58:54;;;;;;;8.60;6.60;;;14.00;95.40;;;14.82;100.00;98186.16;5026208;28;20476;-78
2023/06/15 03:01:38;;;;;;;3.20;2.57;;;14.00;95.40;;;14.80;100.00;98180.28;5027661;28;20485;-82
2023/06/15 03:04:09;;;;;;;4.70;2.47;;;14.00;95.30;;;14.79;100.00;98186.56;5026800;28;20501;-82
2023/06/15 03:06:40;;;;;;;6.60;2.70;;;13.90;95.20;;;14.75;100.00;98186.16;5021783;28;20824;-82
2023/06/15 03:09:11;;;;;;;3.67;2.97;;;13.90;95.10;;;14.67;100.00;98186.44;5026680;28;20478;-79
2023/06/15 03:11:40;;;;;;;6.90;2.50;;;14.00;95.00;;;14.65;100.00;98198.97;5026694;28;20462;-83
2023/06/15 03:14:10;;;;;;;4.83;2.67;;;13.90;95.10;;;14.57;100.00;98194.78;5024888;28;21144;-83
2023/06/15 03:16:46;;;;;;;3.53;2.67;;;13.90;95.00;;;14.55;100.00;98195.97;5024144;28;20667;-82
2023/06/15 03:19:17;;;;;;;4.30;3.00;;;13.80;95.40;;;14.52;100.00;98202.47;5007304;28;20479;-80
2023/06/15 03:21:47;;;;;;;3.53;2.90;;;13.80;95.40;;;14.53;100.00;98198.03;5028245;28;20466;-81
2023/06/15 03:24:17;;;;;;;3.10;2.70;;;13.80;95.50;;;14.47;100.00;98204.91;5028488;28;20948;-81
2023/06/15 03:26:47;;;;;;;6.57;3.13;;;13.80;95.30;;;14.43;100.00;98203.72;5028300;28;20560;-81
2023/06/15 03:29:16;;;;;;;3.33;2.67;;;13.70;95.70;;;14.43;100.00;98203.72;5027316;28;20857;-81
2023/06/15 03:31:49;;;;;;;4.23;2.87;;;13.70;95.70;;;14.45;100.00;98204.31;5026147;28;20477;-80
2023/06/15 03:34:18;;;;;;;6.43;2.50;;;13.60;95.50;;;14.43;100.00;98202.91;5027380;28;20508;-81
2023/06/15 03:36:47;;;;;;;5.00;2.60;;;13.60;95.40;;;14.37;100.00;98199.28;5019260;28;20612;-80
2023/06/15 03:39:16;;;;;;;3.67;2.50;;;13.60;95.50;;;14.34;100.00;98204.94;5026185;28;20470;-81
2023/06/15 03:41:45;;;;;;;5.60;2.57;;;13.60;95.50;;;14.37;100.00;98209.81;5028122;28;20523;-82
2023/06/15 03:44:15;;;;;;;6.40;3.10;;;13.60;95.80;;;14.36;100.00;98213.47;5026480;28;20492;-81
2023/06/15 03:46:45;;;;;;;3.57;2.87;;;13.60;95.60;;;14.33;100.00;98215.66;5027238;28;20469;-81
2023/06/15 03:49:15;;;;;;;2.90;2.60;;;13.60;95.60;;;14.31;100.00;98209.78;5027317;28;20470;-82
2023/06/15 03:51:44;;;;;;;4.10;2.50;;;13.50;95.80;;;14.32;100.00;98216.69;5026886;28;20474;-81
2023/06/15 03:54:14;;;;;;;3.00;2.70;;;13.50;95.90;;;14.32;100.00;98217.50;5021796;28;20461;-81
2023/06/15 03:56:43;;;;;;;2.93;2.63;;;13.60;95.80;;;14.28;100.00;98218.09;5023357;28;20554;-78
2023/06/15 03:59:14;;;;;;;3.90;2.60;;;13.50;95.70;;;14.22;100.00;98221.56;5024346;28;20951;-81
2023/06/15 04:01:44;;;;;;;4.47;3.07;;;13.50;95.70;;;14.18;100.00;98221.16;5025864;28;20477;-81
2023/06/15 04:04:15;;;;;;;5.57;3.60;;;13.50;95.80;;;14.15;100.00;98226.84;4993509;28;20504;-80
2023/06/15 04:06:47;;;;;;;3.40;2.80;;;13.40;95.90;;;14.12;100.00;98222.00;5025778;28;20474;-80
2023/06/15 04:09:16;;;;;;;3.30;2.50;;;13.40;95.90;;;14.09;100.00;98227.66;5026799;28;20508;-81
2023/06/15 04:11:45;;;;;;;6.90;2.93;;;13.30;96.20;;;14.09;100.00;98222.41;5026732;28;20470;-81
2023/06/15 04:14:14;;;;;;;4.57;3.07;;;13.30;96.20;;;14.08;100.00;98226.03;5025537;28;20474;-80
2023/06/15 04:16:47;;;;;;;5.40;3.27;;;13.30;96.10;;;14.05;100.00;98226.44;5025491;28;20493;-80
2023/06/15 04:19:16;;;;;;;2.53;2.33;;;13.40;96.20;;;14.08;100.00;98232.09;5008015;28;20479;-82
2023/06/15 04:21:47;;;;;;;3.57;2.90;;;13.30;96.30;;;14.10;100.00;98234.50;5026469;28;20449;-79
2023/06/15 04:24:16;;;;;;;7.10;4.00;;;13.30;96.30;;;14.14;100.00;98235.72;5024662;28;20809;-81
2023/06/15 04:26:46;;;;;;;5.23;3.07;;;13.30;96.50;;;14.18;100.00;98236.13;5025513;28;20470;-81
2023/06/15 04:29:18;;;;;;;7.67;2.63;;;13.40;96.50;;;14.19;100.00;98241.19;5020376;28;20497;-81
2023/06/15 04:31:54;;;;;;;6.27;3.33;;;13.40;96.40;;;14.20;100.00;98239.34;5029009;28;20446;-81
2023/06/15 04:34:26;;;;;;;4.70;3.40;;;13.40;96.60;;;14.17;100.00;98239.75;5028253;28;20573;-81
2023/06/15 04:36:56;;;;;;;3.47;2.60;;;13.40;96.50;;;14.14;100.00;98246.25;5028233;28;20509;-81
2023/06/15 04:39:25;;;;;;;3.53;2.77;;;13.40;96.60;;;14.18;100.00;98252.72;5029564;28;20489;-82
2023/06/15 04:41:57;;;;;;;2.67;2.47;;;13.40;96.80;;;14.22;100.00;98258.38;5010708;28;20561;-81
2023/06/15 04:44:26;;;;;;;3.87;3.00;;;13.40;96.70;;;14.30;100.00;98252.91;5028098;28;21067;-81
2023/06/15 04:46:55;;;;;;;6.20;3.60;;;13.50;96.80;;;14.35;100.00;98253.94;5026962;28;20515;-81
2023/06/15 04:49:26;;;;;;;4.97;3.20;;;13.50;96.90;;;14.39;100.00;98241.19;5027692;28;20462;-81
2023/06/15 04:51:55;;;;;;;3.60;3.10;;;13.50;96.60;;;14.41;100.00;98245.22;5027299;28;20465;-82
2023/06/15 04:54:25;;;;;;;5.07;3.33;;;13.60;96.70;;;14.46;100.00;98240.16;5025721;28;21229;-81
2023/06/15 04:56:54;;;;;;;3.50;2.80;;;13.60;96.80;;;14.52;100.00;98251.66;5026788;28;20506;-81
2023/06/15 04:59:23;;;;;;;4.00;3.10;;;13.60;96.80;;;14.55;100.00;98249.44;5027514;28;20458;-81
2023/06/15 05:01:52;;;;;;;5.07;3.40;;;13.70;97.00;;;14.60;100.00;98254.91;5027589;28;20544;-82
2023/06/15 05:04:22;;;;;;;5.03;3.30;;;13.70;97.00;;;14.66;100.00;98257.69;5025692;28;20524;-81
2023/06/15 05:06:53;;;;;;;2.97;2.67;;;13.80;96.90;;;14.67;100.00;98257.50;5026341;28;20466;-81
2023/06/15 05:09:23;;;;;;;4.43;3.40;;;13.80;97.00;;;14.69;100.00;98254.66;5027099;28;20494;-81
2023/06/15 05:11:51;;;;;;;3.57;2.90;;;13.80;97.00;;;14.74;100.00;98260.91;5027345;28;20478;-80
2023/06/15 05:14:21;;;;;;;3.33;2.40;;;13.80;97.10;;;14.79;100.00;98257.63;5027594;28;20485;-81
2023/06/15 05:16:50;;;;;;;4.90;2.97;;;13.90;97.00;;;14.83;100.00;98262.28;5026747;28;20494;-81
2023/06/15 05:19:19;;;;;;;3.97;3.00;;;13.90;97.00;;;14.88;100.00;98253.78;5024514;28;20850;-81
2023/06/15 05:21:52;;;;;;;3.13;2.73;;;14.00;97.10;;;14.93;100.00;98256.56;5028326;28;20494;-81
2023/06/15 05:24:21;;;;;;;3.13;2.67;;;14.00;97.00;;;14.98;100.00;98254.13;5027260;28;20466;-81
2023/06/15 05:26:50;;;;;;;5.00;2.73;;;14.10;97.10;;;15.03;100.00;98246.41;5026194;28;20477;-81
2023/06/15 05:29:19;;;;;;;3.77;2.80;;;14.20;97.10;;;15.05;100.00;98249.66;5026678;28;20492;-81
2023/06/15 05:31:49;;;;;;;3.70;2.67;;;14.20;97.00;;;15.13;100.00;98253.88;5025672;28;20479;-81
2023/06/15 05:34:17;;;;;;;4.50;3.00;;;14.20;97.00;;;15.18;100.00;98249.56;5026144;28;20497;-81
2023/06/15 05:36:46;;;;;;;5.97;3.00;;;14.30;97.10;;;15.23;100.00;98260.28;5026666;28;20500;-81
2023/06/15 05:39:26;;;;;;;5.90;3.10;;;14.30;96.90;;;15.29;100.00;98259.44;5024981;28;20464;-81
2023/06/15 05:41:56;;;;;;;3.57;3.10;;;14.40;96.90;;;15.35;100.00;98263.84;5027151;28;21415;-81
2023/06/15 05:44:25;;;;;;;3.87;2.77;;;14.50;96.80;;;15.42;100.00;98259.34;5025142;28;20458;-81
2023/06/15 05:46:53;;;;;;;5.47;3.00;;;14.50;96.80;;;15.46;100.00;98265.00;5027282;28;20469;-82
2023/06/15 05:49:22;;;;;;;6.73;3.00;;;14.60;97.10;;;15.48;100.00;98255.91;5026830;28;20485;-80
2023/06/15 05:51:50;;;;;;;3.47;3.07;;;14.60;97.20;;;15.55;100.00;98261.13;5025365;28;20474;-82
2023/06/15 05:54:20;;;;;;;6.47;2.67;;;14.60;97.00;;;15.62;100.00;98266.38;5027009;28;20473;-81
2023/06/15 05:56:50;;;;;;;4.30;2.67;;;14.70;97.00;;;15.67;100.00;98266.53;5024501;28;20497;-81
2023/06/15 05:59:19;;;;;;;3.73;2.60;;;14.80;97.10;;;15.72;100.00;98271.97;5027010;28;20972;-81
2023/06/15 06:02:02;;;;;;;4.80;3.13;;;14.80;97.20;;;15.77;100.00;98269.50;5025747;28;20489;-81
2023/06/15 06:04:30;;;;;;;4.40;2.73;;;14.90;97.30;;;15.83;100.00;98268.63;5025571;28;20520;-81
2023/06/15 06:06:59;;;;;;;5.90;3.40;;;15.00;97.30;;;15.88;100.00;98282.00;5026147;28;20541;-81
2023/06/15 06:09:28;;;;;;;4.10;2.60;;;15.10;97.40;;;15.93;100.00;98274.25;5029182;28;20477;-81
2023/06/15 06:11:58;;;;;;;5.27;3.30;;;15.10;97.40;;;15.99;100.00;98278.66;5029655;28;20479;-81
2023/06/15 06:14:27;;;;;;;6.07;2.87;;;15.10;97.50;;;16.07;100.00;98281.81;5029016;28;20536;-81
2023/06/15 06:16:56;;;;;;;5.43;2.53;;;15.20;97.40;;;16.14;100.00;98281.75;5029443;28;20581;-81
2023/06/15 06:19:25;;;;;;;3.30;2.80;;;15.30;97.50;;;16.20;100.00;98285.38;5029362;28;21432;-81
2023/06/15 06:21:54;;;;;;;2.90;2.53;;;15.40;97.50;;;16.27;100.00;98280.84;5031541;28;21024;-81
2023/06/15 06:24:22;;;;;;;3.80;2.50;;;15.40;97.40;;;16.34;100.00;98282.41;5029985;28;20577;-81
2023/06/15 06:26:51;;;;;;;4.20;2.60;;;15.50;97.40;;;16.42;100.00;98279.47;5029060;28;20504;-81
2023/06/15 06:29:22;;;;;;;3.23;2.70;;;15.60;97.40;;;16.48;100.00;98281.25;5028876;28;20993;-81
2023/06/15 06:31:51;;;;;;;5.10;2.50;;;15.60;97.20;;;16.57;100.00;98277.31;5030102;28;20474;-81
2023/06/15 06:34:20;;;;;;;9.20;3.00;;;15.70;97.20;;;16.68;100.00;98277.63;5028976;28;20758;-81
2023/06/15 06:36:48;;;;;;;4.00;2.33;;;15.80;97.10;;;16.78;100.00;98268.16;5028448;28;20465;-81
2023/06/15 06:39:17;;;;;;;3.37;2.57;;;15.90;97.00;;;16.87;100.00;98273.97;5029800;28;20484;-81
2023/06/15 06:41:47;;;;;;;4.33;2.50;;;16.00;96.80;;;16.95;100.00;98273.66;5029586;28;20481;-81
2023/06/15 06:44:16;;;;;;;3.23;2.77;;;16.10;96.60;;;17.04;100.00;98269.69;5030980;28;20469;-81
2023/06/15 06:46:47;;;;;;;5.53;3.23;;;16.20;96.60;;;17.15;100.00;98270.78;5028814;28;20476;-81
2023/06/15 06:49:16;;;;;;;2.97;2.47;;;16.40;96.60;;;17.24;100.00;98272.06;5029207;28;20480;-81
2023/06/15 06:51:44;;;;;;;3.70;2.70;;;16.50;96.40;;;17.33;100.00;98260.94;5028019;28;20472;-81
2023/06/15 06:54:13;;;;;;;6.60;2.60;;;16.60;96.50;;;17.41;100.00;98265.94;5027063;28;20846;-81
2023/06/15 06:56:42;;;;;;;4.87;3.20;;;16.70;96.30;;;17.51;100.00;98268.03;5029899;28;20505;-81
2023/06/15 06:59:10;;;;;;;5.20;2.80;;;16.80;96.10;;;17.62;100.00;98269.13;5028967;28;20501;-81
2023/06/15 07:01:39;;;;;;;5.30;2.57;;;16.80;95.80;;;17.69;99.84;98264.53;5028798;28;20473;-81
2023/06/15 07:04:10;;;;;;;6.27;2.93;;;16.90;95.80;;;17.77;99.09;98272.94;5028183;28;20469;-81
2023/06/15 07:06:38;;;;;;;3.83;2.80;;;17.10;95.80;;;17.86;98.01;98270.78;5031015;28;20454;-81
2023/06/15 07:09:07;;;;;;;3.47;3.00;;;17.10;95.50;;;17.94;96.55;98273.91;5028512;28;21077;-81
2023/06/15 07:11:35;;;;;;;8.07;2.67;;;17.20;95.30;;;18.02;95.15;98264.81;5029447;28;20964;-81
2023/06/15 07:14:05;;;;;;;3.30;2.73;;;17.30;95.10;;;18.09;95.51;98266.31;5028168;28;20477;-81
2023/06/15 07:16:33;;;;;;;3.57;2.40;;;17.40;95.30;;;18.17;95.28;98267.81;5028080;28;20466;-81
2023/06/15 07:19:02;;;;;;;5.17;2.93;;;17.50;95.10;;;18.25;95.14;98264.03;5027380;28;20632;-81
2023/06/15 07:21:33;;;;;;;6.03;2.50;;;17.60;95.10;;;18.32;94.72;98265.53;5028396;28;20466;-81
2023/06/15 07:24:02;;;;;;;3.77;2.90;;;17.60;95.10;;;18.40;93.98;98262.50;5028157;28;20458;-81
2023/06/15 07:26:31;;;;;;;7.03;2.77;;;17.70;95.20;;;18.47;93.46;98257.91;5027501;28;20729;-81
2023/06/15 07:29:01;;;;;;;3.60;2.70;;;17.80;94.80;;;18.53;91.68;98257.00;5028600;28;20543;-81
2023/06/15 07:31:30;;;;;;;4.03;2.90;;;17.90;94.40;;;18.57;91.44;98259.97;5030045;28;20490;-81
2023/06/15 07:33:59;;;;;;;4.07;2.67;;;18.00;94.40;;;18.66;91.52;98261.25;5029342;28;20571;-81
2023/06/15 07:36:28;;;;;;;2.63;2.13;;;18.00;94.40;;;18.73;91.58;98255.81;5027486;28;20454;-81
2023/06/15 07:38:58;;;;;;;3.73;2.73;;;18.10;94.50;;;18.82;90.41;98257.06;5028703;28;20609;-81
2023/06/15 07:41:26;;;;;;;4.40;2.67;;;18.20;94.20;;;18.88;89.64;98259.56;5028297;28;20473;-81
2023/06/15 07:43:56;;;;;;;10.97;2.80;;;18.30;94.10;;;18.96;89.56;98256.56;5027939;28;20469;-81
2023/06/15 07:46:25;;;;;;;3.73;2.87;;;18.40;94.10;;;19.04;89.81;98263.34;5028147;28;20485;-81
2023/06/15 07:48:53;;;;;;;6.50;3.33;;;18.40;94.20;;;19.12;89.37;98264.81;5029509;28;20539;-81
2023/06/15 07:51:22;;;;;;;4.87;3.07;;;18.40;94.00;;;19.19;88.78;98254.88;5027134;28;20477;-81
2023/06/15 07:54:10;;;;;;;4.37;2.50;;;18.50;94.00;;;19.27;88.64;98262.44;5027023;28;20494;-81
2023/06/15 07:56:40;;;;;;;8.83;2.60;;;18.50;94.00;;;19.33;87.99;98259.63;5029600;28;20466;-81
2023/06/15 07:59:09;;;;;;;3.93;3.10;;;18.70;93.90;;;19.39;86.82;98264.00;5028344;28;20506;-81
2023/06/15 08:01:38;;;;;;;3.83;2.80;;;18.70;93.60;;;19.45;86.16;98259.63;5027949;28;20454;-81
2023/06/15 08:04:07;;;;;;;5.00;2.80;;;18.80;93.50;;;19.47;86.00;98258.34;5027346;28;20478;-81
2023/06/15 08:06:36;;;;;;;3.20;2.30;;;18.70;93.40;;;19.52;86.69;98258.44;5027272;28;20453;-81
2023/06/15 08:09:05;;;;;;;3.10;2.70;;;18.80;93.80;;;19.57;86.81;98261.19;5028243;28;20478;-81
2023/06/15 08:11:35;;;;;;;3.50;2.70;;;18.80;93.80;;;19.57;86.67;98263.84;5027120;28;20471;-81
2023/06/15 08:14:04;;;;;;;3.60;2.63;;;18.80;93.80;;;19.60;84.58;98257.25;5026070;28;20532;-81
2023/06/15 08:16:33;;;;;;;3.80;2.63;;;18.90;93.10;;;19.62;83.87;98259.66;5026228;28;20977;-81
2023/06/15 08:19:03;;;;;;;5.57;2.20;;;18.90;93.00;;;19.65;83.87;98251.19;5026678;28;20564;-81
2023/06/15 08:21:33;;;;;;;5.50;2.97;;;18.90;93.00;;;19.75;84.86;98262.78;5026481;28;20462;-81
2023/06/15 08:24:02;;;;;;;6.33;2.77;;;19.00;93.80;;;19.78;83.69;98254.38;5026632;28;20480;-81
2023/06/15 08:26:31;;;;;;;14.33;2.87;;;19.00;93.10;;;19.83;82.80;98256.28;5026483;28;20474;-82
2023/06/15 08:29:02;;;;;;;4.43;3.00;;;19.10;92.90;;;19.85;82.41;98259.53;5028000;28;21046;-82
2023/06/15 08:31:50;;;;;;;5.17;3.10;;;19.10;92.70;;;19.94;81.44;98263.38;5026148;28;20469;-81
2023/06/15 08:34:20;;;;;;;3.27;2.97;;;19.20;92.50;;;20.03;79.58;98259.25;5025614;28;20483;-81
2023/06/15 08:36:49;;;;;;;7.70;3.43;;;19.40;92.00;;;20.13;78.71;98258.63;5026688;28;20596;-81
2023/06/15 08:39:18;;;;;;;8.90;2.37;;;19.40;91.90;;;20.20;77.84;98257.41;5025506;28;20495;-81
2023/06/15 08:41:50;;;;;;;3.40;2.47;;;19.50;91.60;;;20.27;77.99;98266.03;5026549;28;20489;-81
2023/06/15 08:44:22;;;;;;;3.73;2.27;;;19.60;91.70;;;20.33;74.20;98257.13;5027305;28;20469;-81
2023/06/15 08:46:51;;;;;;;4.30;2.53;;;19.70;90.70;;;20.38;70.31;98265.13;5027939;28;20461;-81
2023/06/15 08:49:20;;;;;;;2.63;2.27;;;19.80;89.10;;;20.44;70.71;98258.06;5027173;28;20466;-81
2023/06/15 08:51:52;;;;;;;3.13;2.30;;;19.80;89.70;;;20.51;71.61;98251.50;5027201;28;20598;-81
2023/06/15 08:54:23;;;;;;;3.90;2.83;;;19.90;90.10;;;20.61;71.07;98258.03;5026974;28;20462;-81
2023/06/15 08:56:52;;;;;;;2.80;2.13;;;19.90;89.90;;;20.63;69.59;98259.38;5028371;28;20474;-81
2023/06/15 08:59:22;;;;;;;4.47;2.10;;;19.90;88.60;;;20.71;67.52;98255.47;5026153;28;20848;-82
2023/06/15 09:01:55;;;;;;;2.70;2.40;;;20.00;87.60;;;20.78;67.21;98258.78;5026131;28;20531;-81
2023/06/15 09:04:26;;;;;;;3.80;2.80;;;20.10;88.10;;;20.81;67.73;98259.06;5025561;28;20471;-81
2023/06/15 09:06:58;;;;;;;3.73;2.30;;;20.10;88.30;;;20.89;68.39;98255.19;5024735;28;20458;-81
2023/06/15 09:09:27;;;;;;;7.40;2.60;;;20.20;88.70;;;20.90;65.22;98251.44;5026529;28;21304;-81
2023/06/15 09:11:56;;;;;;;3.43;2.33;;;20.30;86.60;;;20.97;65.60;98257.38;5025470;28;20473;-82
2023/06/15 09:14:26;;;;;;;6.37;2.50;;;20.40;87.00;;;21.03;65.51;98256.41;5026977;28;20461;-82
2023/06/15 09:16:56;;;;;;;6.13;2.10;;;20.40;87.00;;;21.08;64.38;98253.81;5025464;28;20470;-81
2023/06/15 09:19:24;;;;;;;2.37;2.10;;;20.50;86.50;;;21.13;64.05;98256.56;5025886;28;20891;-81
2023/06/15 09:21:55;;;;;;;3.33;2.20;;;20.40;85.80;;;21.14;64.28;98255.50;5025062;28;20556;-81
2023/06/15 09:24:25;;;;;;;2.90;1.70;;;20.40;86.20;;;21.17;59.94;98243.56;5024973;28;20465;-81
2023/06/15 09:26:54;;;;;;;3.17;2.40;;;20.50;83.20;;;21.18;61.37;98248.63;5025108;28;20980;-82
2023/06/15 09:29:23;;;;;;;2.33;2.00;;;20.60;84.50;;;21.19;61.45;98250.25;5026437;28;20509;-82
2023/06/15 09:31:53;;;;;;;2.77;2.17;;;20.50;84.70;;;21.21;62.13;98248.13;5026179;28;21113;-81
2023/06/15 09:34:22;;;;;;;3.50;2.40;;;20.50;85.40;;;21.18;61.69;98240.63;5024404;28;20976;-81
2023/06/15 09:36:51;;;;;;;3.00;2.07;;;20.40;85.00;;;21.17;60.30;98241.72;5025167;28;20472;-82
2023/06/15 09:39:24;;;;;;;2.37;2.00;;;20.40;83.90;;;21.29;59.52;98241.56;5026209;28;20520;-82
2023/06/15 09:41:56;;;;;;;2.47;2.03;;;20.50;83.40;;;21.36;59.78;98240.31;5025834;28;20473;-81
2023/06/15 09:44:27;;;;;;;5.93;2.27;;;20.70;83.70;;;21.43;60.06;98232.91;5026055;28;20879;-81
2023/06/15 09:47:00;;;;;;;2.17;1.90;;;20.70;84.00;;;21.52;58.17;98242.03;5024743;28;20520;-82
2023/06/15 09:49:31;;;;;;;3.23;1.83;;;20.90;82.70;;;21.56;56.17;98239.69;5026037;28;20468;-81
2023/06/15 09:52:01;;;;;;;3.93;1.83;;;21.00;80.40;;;21.55;57.02;98232.78;5025788;28;20461;-82
2023/06/15 09:54:30;;;;;;;2.70;1.90;;;20.90;81.70;;;21.56;56.80;98235.16;5026713;28;20985;-82
2023/06/15 09:57:02;;;;;;;4.53;1.83;;;20.80;81.50;;;21.59;57.36;98231.19;5025159;28;20574;-82
2023/06/15 09:59:31;;;;;;;3.77;2.10;;;20.80;82.10;;;21.64;56.15;98233.09;5026147;28;20496;-82
2023/06/15 10:02:04;;;;;;;2.90;2.00;;;21.00;81.30;;;21.74;56.46;98233.19;5024519;28;20488;-81
2023/06/15 10:04:40;;;;;;;4.80;1.80;;;21.20;81.50;;;21.82;56.35;98240.72;5025805;28;20495;-81
2023/06/15 10:07:14;;;;;;;3.80;2.40;;;21.20;81.60;;;21.95;57.68;98242.97;5024498;28;21184;-81
2023/06/15 10:09:47;;;;;;;4.73;2.50;;;21.30;82.60;;;21.99;57.50;98233.41;5026081;28;20485;-81
2023/06/15 10:12:20;;;;;;;6.07;2.30;;;21.40;82.60;;;22.04;56.76;98236.91;5027257;28;20466;-82
2023/06/15 10:14:56;;;;;;;2.30;2.00;;;21.40;81.40;;;22.12;55.77;98232.97;5025690;28;20496;-82
2023/06/15 10:17:32;;;;;;;2.00;1.63;;;21.50;81.20;;;22.14;57.01;98222.88;5023121;28;20476;-82
2023/06/15 10:20:08;;;;;;;1.90;1.70;;;21.50;82.30;;;22.19;56.31;98222.91;5025528;28;20501;-82
2023/06/15 10:22:46;;;;;;;8.03;2.07;;;21.50;81.30;;;22.25;55.04;98221.09;5024160;28;20476;-81
2023/06/15 10:25:16;;;;;;;2.90;2.47;;;21.70;80.70;;;22.34;53.99;98233.66;5024428;28;20461;-81
2023/06/15 10:27:45;;;;;;;6.30;1.97;;;21.80;80.00;;;22.38;53.21;98225.94;5026340;28;20458;-81